createdAt,value
2023-01-28T00:02:32.137Z,0.37
2023-01-28T00:05:34.609Z,0.33
2023-01-28T00:08:37.708Z,0.29
2023-01-28T00:11:40.231Z,0.24
2023-01-28T00:14:43.592Z,0.27
2023-01-28T00:17:46.439Z,0.23
2023-01-28T00:21:00.359Z,0.26
2023-01-28T00:24:03.346Z,0.21
2023-01-28T00:27:06.609Z,0.21
2023-01-28T00:30:09.980Z,0.26
2023-01-28T00:33:13.345Z,0.24
2023-01-28T00:36:17.189Z,0.24
2023-01-28T00:39:20.147Z,0.22
2023-01-28T00:42:23.402Z,0.22
2023-01-28T00:45:26.595Z,0.24
2023-01-28T00:48:31.247Z,0.26
2023-01-28T00:51:34.237Z,0.23
2023-01-28T00:54:37.699Z,0.24
2023-01-28T00:57:40.670Z,0.23
2023-01-28T01:00:44.150Z,0.21
2023-01-28T01:03:47.676Z,0.19
2023-01-28T01:06:50.171Z,0.19
2023-01-28T01:09:53.141Z,0.20
2023-01-28T01:12:58.108Z,0.14
2023-01-28T01:16:08.957Z,0.12
2023-01-28T01:19:11.726Z,0.15
2023-01-28T01:22:14.667Z,0.15
2023-01-28T01:25:18.402Z,0.15
2023-01-28T01:28:22.760Z,0.11
2023-01-28T01:31:25.485Z,0.11
2023-01-28T01:34:28.425Z,0.10
2023-01-28T01:37:30.909Z,0.11
2023-01-28T01:40:34.218Z,0.06
2023-01-28T01:43:52.717Z,0.00
2023-01-28T01:46:55.772Z,0.04
2023-01-28T01:50:02.576Z,0.02
2023-01-28T01:53:19.127Z,0.07
2023-01-28T01:56:28.261Z,0.05
2023-01-28T01:59:34.910Z,0.10
2023-01-28T02:02:40.744Z,0.02
2023-01-28T02:05:43.741Z,0.00
2023-01-28T02:08:46.517Z,0.03
2023-01-28T02:11:50.381Z,0.08
2023-01-28T02:15:06.618Z,0.06
2023-01-28T02:18:10.958Z,0.07
2023-01-28T02:21:38.149Z,0.09
2023-01-28T02:24:55.853Z,0.13
2023-01-28T02:28:27.284Z,0.08
2023-01-28T02:31:36.834Z,0.09
2023-01-28T02:34:51.216Z,0.12
2023-01-28T02:38:00.963Z,0.07
2023-01-28T02:41:21.611Z,0.09
2023-01-28T02:44:25.073Z,0.11
2023-01-28T02:47:47.251Z,0.10
2023-01-28T02:51:10.437Z,0.11
2023-01-28T02:54:20.117Z,0.07
2023-01-28T02:57:28.856Z,0.13
2023-01-28T03:01:10.441Z,0.09
2023-01-28T03:04:44.154Z,0.11
2023-01-28T03:07:46.975Z,0.05
2023-01-28T03:11:09.756Z,0.12
2023-01-28T03:14:31.469Z,0.11
2023-01-28T03:18:04.589Z,0.13
2023-01-28T03:21:31.880Z,0.14
2023-01-28T03:25:07.692Z,0.14
2023-01-28T03:28:34.321Z,0.07
2023-01-28T03:31:57.890Z,0.03
2023-01-28T03:35:19.770Z,0.12
2023-01-28T03:38:23.378Z,0.11
2023-01-28T03:41:27.700Z,0.06
2023-01-28T03:44:52.005Z,0.09
2023-01-28T03:47:55.330Z,0.11
2023-01-28T03:51:02.091Z,0.12
2023-01-28T03:54:06.077Z,0.07
2023-01-28T03:57:08.922Z,0.09
2023-01-28T04:00:12.069Z,0.14
2023-01-28T04:03:20.467Z,0.16
2023-01-28T04:06:35.069Z,0.19
2023-01-28T04:09:55.969Z,0.11
2023-01-28T04:13:03.878Z,0.09
2023-01-28T04:16:07.542Z,0.09
2023-01-28T04:19:16.075Z,0.15
2023-01-28T04:22:20.949Z,0.12
2023-01-28T04:25:23.662Z,0.10
2023-01-28T04:28:26.531Z,0.09
2023-01-28T04:31:29.359Z,0.11
2023-01-28T04:34:52.262Z,0.09
2023-01-28T04:38:12.045Z,0.09
2023-01-28T04:41:37.569Z,0.08
2023-01-28T04:44:51.770Z,0.16
2023-01-28T04:48:09.878Z,0.08
2023-01-28T04:51:38.299Z,0.09
2023-01-28T04:55:04.187Z,0.11
2023-01-28T04:58:06.794Z,0.09
2023-01-28T05:01:11.082Z,0.10
2023-01-28T05:04:13.951Z,0.15
2023-01-28T05:07:17.051Z,0.19
2023-01-28T05:10:20.869Z,0.15
2023-01-28T05:13:23.833Z,0.22
2023-01-28T05:16:27.115Z,0.23
2023-01-28T05:19:30.095Z,0.27
2023-01-28T05:22:33.361Z,0.25
2023-01-28T05:25:59.376Z,0.27
2023-01-28T05:29:02.221Z,0.24
2023-01-28T05:32:05.748Z,0.26
2023-01-28T05:35:08.895Z,0.31
2023-01-28T05:38:14.243Z,0.32
2023-01-28T05:41:18.188Z,0.38
2023-01-28T05:44:23.755Z,0.37
2023-01-28T05:47:48.734Z,0.39
2023-01-28T05:51:02.092Z,0.43
2023-01-28T05:54:10.135Z,0.39
2023-01-28T05:57:13.434Z,0.40
2023-01-28T06:00:17.103Z,0.43
2023-01-28T06:03:21.697Z,0.46
2023-01-28T06:06:24.611Z,0.44
2023-01-28T06:09:28.057Z,0.39
2023-01-28T06:12:30.943Z,0.43
2023-01-28T06:15:56.752Z,0.45
2023-01-28T06:19:18.504Z,0.42
2023-01-28T06:22:21.472Z,0.44
2023-01-28T06:25:24.189Z,0.50
2023-01-28T06:28:27.413Z,0.56
2023-01-28T06:31:30.164Z,0.53
2023-01-28T06:34:33.387Z,0.50
2023-01-28T06:37:36.177Z,0.60
2023-01-28T06:40:39.555Z,0.53
2023-01-28T06:43:42.516Z,0.50
2023-01-28T06:46:45.427Z,0.56
2023-01-28T06:49:48.222Z,0.59
2023-01-28T06:52:51.193Z,0.66
2023-01-28T06:55:53.626Z,0.65
2023-01-28T06:58:56.538Z,0.74
2023-01-28T07:01:59.014Z,0.75
2023-01-28T07:05:02.436Z,0.81
2023-01-28T07:08:05.355Z,0.81
2023-01-28T07:11:08.728Z,0.92
2023-01-28T07:14:11.775Z,0.94
2023-01-28T07:17:14.911Z,0.94
2023-01-28T07:20:18.823Z,0.94
2023-01-28T07:23:22.763Z,0.98
2023-01-28T07:26:25.438Z,0.98
2023-01-28T07:29:28.628Z,1.01
2023-01-28T07:32:31.233Z,1.05
2023-01-28T07:35:34.332Z,1.07
2023-01-28T07:38:37.068Z,1.10
2023-01-28T07:41:39.942Z,1.18
2023-01-28T07:44:43.169Z,1.24
2023-01-28T07:47:46.677Z,1.31
2023-01-28T07:50:51.883Z,1.38
2023-01-28T07:53:54.982Z,1.42
2023-01-28T07:56:57.422Z,1.40
2023-01-28T08:00:00.351Z,1.44
2023-01-28T08:03:08.259Z,1.40
2023-01-28T08:06:11.922Z,1.45
2023-01-28T08:09:14.717Z,1.46
2023-01-28T08:12:18.231Z,1.46
2023-01-28T08:15:21.747Z,1.54
2023-01-28T08:18:25.077Z,1.66
2023-01-28T08:21:28.255Z,1.68
2023-01-28T08:24:31.426Z,1.74
2023-01-28T08:27:34.269Z,1.78
2023-01-28T08:30:40.088Z,1.77
2023-01-28T08:33:42.836Z,1.91
2023-01-28T08:36:45.789Z,1.95
2023-01-28T08:39:48.627Z,1.97
2023-01-28T08:42:53.206Z,2.01
2023-01-28T08:45:55.868Z,2.01
2023-01-28T08:48:58.796Z,2.12
2023-01-28T08:52:01.634Z,2.08
2023-01-28T08:55:04.497Z,2.15
2023-01-28T08:58:10.310Z,2.25
2023-01-28T09:01:13.152Z,2.35
2023-01-28T09:04:15.969Z,2.30
2023-01-28T09:07:18.773Z,2.32
2023-01-28T09:10:22.030Z,2.47
2023-01-28T09:13:25.342Z,2.46
2023-01-28T09:16:28.291Z,2.27
2023-01-28T09:19:31.194Z,2.35
2023-01-28T09:22:34.345Z,2.19
2023-01-28T09:25:37.430Z,2.18
2023-01-28T09:28:40.248Z,2.14
2023-01-28T09:31:43.632Z,2.14
2023-01-28T09:34:46.114Z,2.07
2023-01-28T09:37:49.301Z,2.03
2023-01-28T09:40:51.949Z,1.94
2023-01-28T09:44:23.641Z,1.92
2023-01-28T09:47:46.258Z,2.07
2023-01-28T09:50:53.451Z,2.14
2023-01-28T09:53:59.407Z,2.23
2023-01-28T09:57:27.104Z,2.22
2023-01-28T10:00:45.050Z,2.36
2023-01-28T10:04:14.514Z,2.31
2023-01-28T10:07:43.848Z,2.31
2023-01-28T10:11:05.433Z,2.20
2023-01-28T10:14:26.234Z,2.27
2023-01-28T10:17:37.514Z,2.29
2023-01-28T10:20:55.236Z,2.43
2023-01-28T10:24:06.583Z,2.61
2023-01-28T10:27:15.256Z,2.46
2023-01-28T10:30:25.780Z,2.40
2023-01-28T10:33:28.208Z,2.27
2023-01-28T10:36:31.263Z,2.14
2023-01-28T10:39:34.149Z,2.24
2023-01-28T10:42:39.366Z,2.36
2023-01-28T10:45:58.810Z,2.32
2023-01-28T10:49:19.051Z,2.40
2023-01-28T10:52:21.902Z,2.24
2023-01-28T10:55:44.649Z,2.30
2023-01-28T10:59:00.725Z,2.23
2023-01-28T11:02:20.196Z,2.25
2023-01-28T11:05:30.960Z,2.21
2023-01-28T11:08:44.432Z,2.16
2023-01-28T11:11:46.867Z,2.04
2023-01-28T11:15:05.620Z,2.13
2023-01-28T11:18:17.390Z,2.25
2023-01-28T11:21:23.068Z,2.21
2023-01-28T11:24:32.151Z,2.24
2023-01-28T11:27:34.821Z,2.23
2023-01-28T11:30:41.624Z,2.35
2023-01-28T11:34:01.672Z,2.35
2023-01-28T11:37:13.536Z,2.41
2023-01-28T11:40:21.567Z,2.37
2023-01-28T11:43:26.915Z,2.34
2023-01-28T11:46:47.236Z,2.29
2023-01-28T11:50:10.836Z,2.23
2023-01-28T11:53:47.423Z,2.30
2023-01-28T11:57:23.647Z,2.20
2023-01-28T12:00:26.495Z,2.29
2023-01-28T12:03:46.905Z,2.31
2023-01-28T12:07:20.830Z,2.33
2023-01-28T12:10:23.524Z,2.29
2023-01-28T12:13:29.345Z,2.29
2023-01-28T12:16:31.794Z,2.43
2023-01-28T12:19:40.178Z,2.41
2023-01-28T12:23:09.833Z,2.46
2023-01-28T12:26:54.926Z,2.50
2023-01-28T12:30:23.490Z,2.47
2023-01-28T12:33:45.398Z,2.41
2023-01-28T12:37:04.405Z,2.43
2023-01-28T12:40:34.554Z,2.49
2023-01-28T12:43:44.213Z,2.40
2023-01-28T12:47:00.832Z,2.39
2023-01-28T12:50:20.170Z,2.35
2023-01-28T12:53:34.139Z,2.39
2023-01-28T12:56:49.329Z,2.43
2023-01-28T12:59:56.788Z,2.50
2023-01-28T13:03:09.623Z,2.51
2023-01-28T13:06:20.088Z,2.38
2023-01-28T13:09:25.504Z,2.39
2023-01-28T13:12:28.720Z,2.38
2023-01-28T13:15:32.324Z,2.42
2023-01-28T13:18:41.572Z,2.36
2023-01-28T13:21:49.326Z,2.35
2023-01-28T13:24:52.741Z,2.42
2023-01-28T13:28:06.485Z,2.37
2023-01-28T13:31:17.798Z,2.39
2023-01-28T13:34:33.690Z,2.34
2023-01-28T13:37:44.706Z,2.32
2023-01-28T13:40:57.151Z,2.30
2023-01-28T13:44:01.371Z,2.29
2023-01-28T13:47:06.625Z,2.29
2023-01-28T13:50:39.781Z,2.38
2023-01-28T13:53:48.945Z,2.34
2023-01-28T13:57:00.920Z,2.29
2023-01-28T14:00:03.748Z,2.31
2023-01-28T14:03:28.832Z,2.26
2023-01-28T14:06:56.026Z,2.31
2023-01-28T14:09:58.566Z,2.36
2023-01-28T14:13:23.121Z,2.35
2023-01-28T14:16:42.649Z,2.29
2023-01-28T14:19:46.228Z,2.26
2023-01-28T14:22:50.012Z,2.24
2023-01-28T14:26:13.672Z,2.23
2023-01-28T14:29:28.448Z,2.23
2023-01-28T14:32:33.379Z,2.20
2023-01-28T14:35:40.225Z,2.14
2023-01-28T14:38:45.243Z,2.08
2023-01-28T14:41:51.054Z,2.02
2023-01-28T14:45:11.559Z,2.06
2023-01-28T14:48:26.348Z,1.95
2023-01-28T14:51:39.415Z,1.90
2023-01-28T14:55:01.037Z,1.89
2023-01-28T14:58:16.124Z,1.87
2023-01-28T15:01:30.850Z,1.90
2023-01-28T15:04:34.757Z,1.81
2023-01-28T15:07:37.523Z,1.87
2023-01-28T15:10:41.019Z,1.83
2023-01-28T15:13:47.142Z,1.76
2023-01-28T15:16:50.695Z,1.72
2023-01-28T15:19:58.053Z,1.69
2023-01-28T15:23:03.438Z,1.67
2023-01-28T15:26:17.271Z,1.61
2023-01-28T15:29:32.029Z,1.59
2023-01-28T15:32:34.940Z,1.54
2023-01-28T15:35:37.574Z,1.55
2023-01-28T15:38:40.493Z,1.54
2023-01-28T15:41:47.611Z,1.54
2023-01-28T15:44:51.468Z,1.48
2023-01-28T15:48:05.236Z,1.44
2023-01-28T15:51:18.685Z,1.42
2023-01-28T15:54:21.718Z,1.53
2023-01-28T15:57:35.158Z,1.47
2023-01-28T16:00:38.722Z,1.39
2023-01-28T16:03:43.932Z,1.29
2023-01-28T16:06:46.969Z,1.35
2023-01-28T16:09:55.565Z,1.35
2023-01-28T16:13:19.753Z,1.20
2023-01-28T16:16:35.328Z,1.17
2023-01-28T16:19:42.377Z,1.12
2023-01-28T16:22:45.709Z,1.10
2023-01-28T16:25:59.589Z,1.08
2023-01-28T16:29:17.118Z,1.05
2023-01-28T16:32:49.580Z,0.95
2023-01-28T16:36:06.553Z,0.93
2023-01-28T16:39:11.225Z,0.94
2023-01-28T16:42:14.192Z,0.86
2023-01-28T16:45:34.844Z,0.88
2023-01-28T16:48:37.874Z,0.80
2023-01-28T16:51:43.780Z,0.73
2023-01-28T16:54:47.420Z,0.67
2023-01-28T16:57:55.868Z,0.61
2023-01-28T17:00:59.770Z,0.52
2023-01-28T17:04:11.745Z,0.51
2023-01-28T17:07:15.329Z,0.48
2023-01-28T17:10:20.600Z,0.43
2023-01-28T17:13:23.749Z,0.45
2023-01-28T17:16:26.628Z,0.45
2023-01-28T17:19:29.623Z,0.42
2023-01-28T17:22:32.345Z,0.44
2023-01-28T17:25:41.680Z,0.41
2023-01-28T17:28:44.698Z,0.40
2023-01-28T17:31:47.925Z,0.39
2023-01-28T17:34:50.684Z,0.37
2023-01-28T17:37:54.883Z,0.39
2023-01-28T17:41:05.607Z,0.39
2023-01-28T17:44:12.275Z,0.38
2023-01-28T17:47:15.281Z,0.37
2023-01-28T17:50:18.573Z,0.34
2023-01-28T17:53:21.566Z,0.37
2023-01-28T17:56:27.017Z,0.36
2023-01-28T17:59:29.812Z,0.36
2023-01-28T18:02:33.172Z,0.36
2023-01-28T18:05:35.862Z,0.35
2023-01-28T18:08:38.960Z,0.33
2023-01-28T18:11:41.776Z,0.31
2023-01-28T18:14:44.697Z,0.38
2023-01-28T18:17:47.721Z,0.32
2023-01-28T18:21:05.437Z,0.34
2023-01-28T18:24:08.485Z,0.31
2023-01-28T18:27:11.602Z,0.27
2023-01-28T18:30:16.416Z,0.31
2023-01-28T18:33:20.700Z,0.28
2023-01-28T18:36:23.568Z,0.26
2023-01-28T18:39:30.480Z,0.22
2023-01-28T18:42:33.274Z,0.20
2023-01-28T18:45:40.619Z,0.19
2023-01-28T18:48:43.601Z,0.21
2023-01-28T18:51:46.987Z,0.20
2023-01-28T18:54:49.777Z,0.15
2023-01-28T18:57:53.007Z,0.18
2023-01-28T19:00:56.544Z,0.16
2023-01-28T19:04:00.341Z,0.16
2023-01-28T19:07:02.709Z,0.15
2023-01-28T19:10:06.258Z,0.15
2023-01-28T19:13:09.742Z,0.16
2023-01-28T19:16:12.578Z,0.14
2023-01-28T19:19:15.559Z,0.10
2023-01-28T19:22:18.580Z,0.07
2023-01-28T19:25:21.439Z,0.05
2023-01-28T19:28:25.109Z,0.06
2023-01-28T19:31:28.660Z,-0.01
2023-01-28T19:34:32.212Z,0.05
2023-01-28T19:37:34.784Z,0.06
2023-01-28T19:40:40.561Z,0.03
2023-01-28T19:43:43.956Z,-0.03
2023-01-28T19:46:46.574Z,0.00
2023-01-28T19:49:49.320Z,0.01
2023-01-28T19:52:53.357Z,-0.05
2023-01-28T19:55:56.168Z,-0.04
2023-01-28T19:58:59.623Z,0.00
2023-01-28T20:02:02.343Z,0.00
2023-01-28T20:05:05.757Z,0.01
2023-01-28T20:08:10.689Z,-0.01
2023-01-28T20:11:16.360Z,-0.11
2023-01-28T20:14:20.821Z,-0.15
2023-01-28T20:17:23.868Z,-0.27
2023-01-28T20:20:27.163Z,-0.30
2023-01-28T20:23:30.835Z,-0.36
2023-01-28T20:26:37.917Z,-0.53
2023-01-28T20:29:41.530Z,-0.56
2023-01-28T20:32:44.445Z,-0.63
2023-01-28T20:35:48.299Z,-0.65
2023-01-28T20:38:51.055Z,-0.61
2023-01-28T20:41:54.523Z,-0.67
2023-01-28T20:44:57.095Z,-0.77
2023-01-28T20:48:00.034Z,-0.69
2023-01-28T20:51:07.441Z,-0.67
2023-01-28T20:54:10.525Z,-0.66
2023-01-28T20:57:13.492Z,-0.69
2023-01-28T21:00:17.684Z,-0.76
2023-01-28T21:03:21.332Z,-0.83
2023-01-28T21:06:25.373Z,-0.91
2023-01-28T21:09:28.052Z,-0.86
2023-01-28T21:12:31.608Z,-0.92
2023-01-28T21:15:34.477Z,-0.97
2023-01-28T21:18:37.416Z,-1.06
2023-01-28T21:21:42.720Z,-1.11
2023-01-28T21:24:47.190Z,-1.17
2023-01-28T21:27:50.649Z,-1.06
2023-01-28T21:30:54.663Z,-1.12
2023-01-28T21:33:59.163Z,-1.11
2023-01-28T21:37:02.056Z,-1.18
2023-01-28T21:40:06.790Z,-1.12
2023-01-28T21:43:12.505Z,-1.05
2023-01-28T21:46:16.296Z,-1.06
2023-01-28T21:49:19.033Z,-1.10
2023-01-28T21:52:22.163Z,-1.02
2023-01-28T21:55:24.936Z,-1.07
2023-01-28T21:58:46.237Z,-1.02
2023-01-28T22:01:49.530Z,-0.83
2023-01-28T22:04:51.952Z,-0.77
2023-01-28T22:07:59.250Z,-0.71
2023-01-28T22:11:03.460Z,-0.57
2023-01-28T22:14:07.186Z,-0.48
2023-01-28T22:17:11.916Z,-0.41
2023-01-28T22:20:15.104Z,-0.32
2023-01-28T22:23:18.826Z,-0.33
2023-01-28T22:26:21.666Z,-0.28
2023-01-28T22:29:25.221Z,-0.28
2023-01-28T22:32:28.488Z,-0.24
2023-01-28T22:35:30.903Z,-0.24
2023-01-28T22:38:33.869Z,-0.19
2023-01-28T22:41:36.470Z,-0.24
2023-01-28T22:44:39.850Z,-0.22
2023-01-28T22:47:46.098Z,-0.22
2023-01-28T22:50:49.012Z,-0.23
2023-01-28T22:53:52.470Z,-0.26
2023-01-28T22:56:55.423Z,-0.34
2023-01-28T23:00:00.420Z,-0.41
2023-01-28T23:03:03.979Z,-0.45
2023-01-28T23:06:06.482Z,-0.49
2023-01-28T23:09:09.549Z,-0.59
2023-01-28T23:12:12.093Z,-0.71
2023-01-28T23:15:34.020Z,-0.73
2023-01-28T23:18:56.152Z,-0.85
2023-01-28T23:22:21.833Z,-0.97
2023-01-28T23:25:24.642Z,-1.08
2023-01-28T23:28:27.568Z,-1.07
2023-01-28T23:31:30.437Z,-1.13
2023-01-28T23:34:41.536Z,-1.19
2023-01-28T23:37:44.057Z,-1.25
2023-01-28T23:40:47.257Z,-1.26
2023-01-28T23:43:49.906Z,-1.31
2023-01-28T23:46:54.850Z,-1.30
2023-01-28T23:49:57.693Z,-1.38
2023-01-28T23:53:00.825Z,-1.45
2023-01-28T23:56:06.972Z,-1.43
2023-01-28T23:59:10.051Z,-1.51
